sensor_id;sensor_type;location;lat;lon;timestamp;P1;durP1;ratioP1;P2;durP2;ratioP2
21158;SDS011;10737;45.436;4.390;2023-02-26T12:48:42;5.93;;;3.17;;
21158;SDS011;10737;45.436;4.390;2023-02-26T12:54:03;4.85;;;3.20;;
21158;SDS011;10737;45.436;4.390;2023-02-26T12:59:15;3.40;;;3.10;;
21158;SDS011;10737;45.436;4.390;2023-02-26T13:04:46;3.20;;;2.90;;
21158;SDS011;10737;45.436;4.390;2023-02-26T13:09:55;3.55;;;3.33;;
21158;SDS011;10737;45.436;4.390;2023-02-26T13:15:02;3.90;;;3.35;;
21158;SDS011;10737;45.436;4.390;2023-02-26T13:20:15;3.58;;;3.22;;
21158;SDS011;10737;45.436;4.390;2023-02-26T13:25:20;5.68;;;3.72;;
21158;SDS011;10737;45.436;4.390;2023-02-26T13:30:27;3.88;;;3.50;;
21158;SDS011;10737;45.436;4.390;2023-02-26T13:35:35;3.28;;;2.97;;
21158;SDS011;10737;45.436;4.390;2023-02-26T13:40:46;4.22;;;3.22;;
21158;SDS011;10737;45.436;4.390;2023-02-26T13:45:55;4.00;;;3.58;;
21158;SDS011;10737;45.436;4.390;2023-02-26T13:51:04;4.35;;;3.05;;
21158;SDS011;10737;45.436;4.390;2023-02-26T13:56:12;3.13;;;2.72;;
21158;SDS011;10737;45.436;4.390;2023-02-26T14:01:17;4.50;;;3.10;;
21158;SDS011;10737;45.436;4.390;2023-02-26T14:06:35;3.45;;;2.67;;
21158;SDS011;10737;45.436;4.390;2023-02-26T14:11:44;3.17;;;2.97;;
21158;SDS011;10737;45.436;4.390;2023-02-26T14:16:48;3.47;;;3.00;;
21158;SDS011;10737;45.436;4.390;2023-02-26T14:21:54;4.63;;;2.63;;
21158;SDS011;10737;45.436;4.390;2023-02-26T14:27:06;4.07;;;2.70;;
21158;SDS011;10737;45.436;4.390;2023-02-26T14:32:14;3.78;;;3.00;;
21158;SDS011;10737;45.436;4.390;2023-02-26T14:37:20;4.78;;;2.53;;
21158;SDS011;10737;45.436;4.390;2023-02-26T14:42:28;4.80;;;2.78;;
21158;SDS011;10737;45.436;4.390;2023-02-26T14:47:33;2.92;;;2.42;;
21158;SDS011;10737;45.436;4.390;2023-02-26T14:52:44;2.92;;;2.70;;
21158;SDS011;10737;45.436;4.390;2023-02-26T14:57:52;3.05;;;2.88;;
21158;SDS011;10737;45.436;4.390;2023-02-26T15:03:13;4.00;;;2.40;;
21158;SDS011;10737;45.436;4.390;2023-02-26T15:08:30;2.85;;;2.58;;
21158;SDS011;10737;45.436;4.390;2023-02-26T15:13:44;2.50;;;2.30;;
21158;SDS011;10737;45.436;4.390;2023-02-26T15:19:03;3.70;;;2.83;;
21158;SDS011;10737;45.436;4.390;2023-02-26T15:24:10;4.00;;;2.90;;
21158;SDS011;10737;45.436;4.390;2023-02-26T15:29:15;5.28;;;3.00;;
21158;SDS011;10737;45.436;4.390;2023-02-26T15:34:19;2.90;;;2.70;;
21158;SDS011;10737;45.436;4.390;2023-02-26T15:39:24;6.93;;;2.95;;
21158;SDS011;10737;45.436;4.390;2023-02-26T15:44:28;2.95;;;2.70;;
21158;SDS011;10737;45.436;4.390;2023-02-26T15:49:33;3.33;;;3.10;;
21158;SDS011;10737;45.436;4.390;2023-02-26T15:54:39;3.60;;;3.05;;
21158;SDS011;10737;45.436;4.390;2023-02-26T15:59:44;3.25;;;2.97;;
21158;SDS011;10737;45.436;4.390;2023-02-26T16:04:48;3.13;;;2.55;;
21158;SDS011;10737;45.436;4.390;2023-02-26T16:09:55;3.05;;;2.78;;
21158;SDS011;10737;45.436;4.390;2023-02-26T16:14:59;3.47;;;2.88;;
21158;SDS011;10737;45.436;4.390;2023-02-26T16:20:04;3.58;;;3.28;;
21158;SDS011;10737;45.436;4.390;2023-02-26T16:25:12;3.05;;;2.72;;
21158;SDS011;10737;45.436;4.390;2023-02-26T16:30:17;3.25;;;3.05;;
21158;SDS011;10737;45.436;4.390;2023-02-26T16:35:26;12.35;;;6.95;;
21158;SDS011;10737;45.436;4.390;2023-02-26T16:40:33;2.90;;;2.70;;
21158;SDS011;10737;45.436;4.390;2023-02-26T16:45:45;3.30;;;3.10;;
21158;SDS011;10737;45.436;4.390;2023-02-26T16:50:52;3.75;;;3.45;;
21158;SDS011;10737;45.436;4.390;2023-02-26T16:55:59;3.00;;;2.80;;
21158;SDS011;10737;45.436;4.390;2023-02-26T17:01:04;2.95;;;2.75;;
21158;SDS011;10737;45.436;4.390;2023-02-26T17:06:09;3.38;;;2.80;;
21158;SDS011;10737;45.436;4.390;2023-02-26T17:11:19;3.35;;;3.15;;
21158;SDS011;10737;45.436;4.390;2023-02-26T17:16:23;2.90;;;2.70;;
21158;SDS011;10737;45.436;4.390;2023-02-26T17:21:26;5.00;;;2.90;;
21158;SDS011;10737;45.436;4.390;2023-02-26T17:26:31;3.28;;;3.00;;
21158;SDS011;10737;45.436;4.390;2023-02-26T17:31:34;2.83;;;2.67;;
21158;SDS011;10737;45.436;4.390;2023-02-26T17:36:37;3.10;;;2.90;;
21158;SDS011;10737;45.436;4.390;2023-02-26T17:41:43;3.30;;;3.10;;
21158;SDS011;10737;45.436;4.390;2023-02-26T17:46:46;3.75;;;3.13;;
21158;SDS011;10737;45.436;4.390;2023-02-26T17:51:49;3.42;;;2.75;;
21158;SDS011;10737;45.436;4.390;2023-02-26T17:56:56;3.55;;;3.22;;
21158;SDS011;10737;45.436;4.390;2023-02-26T18:02:00;3.40;;;3.10;;
21158;SDS011;10737;45.436;4.390;2023-02-26T18:07:03;3.22;;;3.03;;
21158;SDS011;10737;45.436;4.390;2023-02-26T18:12:09;4.45;;;3.35;;
21158;SDS011;10737;45.436;4.390;2023-02-26T18:17:14;3.55;;;3.25;;
21158;SDS011;10737;45.436;4.390;2023-02-26T18:22:18;4.60;;;3.03;;
21158;SDS011;10737;45.436;4.390;2023-02-26T18:27:30;3.33;;;2.97;;
21158;SDS011;10737;45.436;4.390;2023-02-26T18:32:33;3.33;;;3.13;;
21158;SDS011;10737;45.436;4.390;2023-02-26T18:37:37;4.05;;;3.75;;
21158;SDS011;10737;45.436;4.390;2023-02-26T18:42:41;3.17;;;2.83;;
21158;SDS011;10737;45.436;4.390;2023-02-26T18:47:44;3.10;;;2.80;;
21158;SDS011;10737;45.436;4.390;2023-02-26T18:52:48;5.43;;;4.07;;
21158;SDS011;10737;45.436;4.390;2023-02-26T18:57:52;3.53;;;3.22;;
21158;SDS011;10737;45.436;4.390;2023-02-26T19:02:56;4.05;;;3.75;;
21158;SDS011;10737;45.436;4.390;2023-02-26T19:07:59;13.05;;;3.60;;
21158;SDS011;10737;45.436;4.390;2023-02-26T19:13:03;5.18;;;3.85;;
21158;SDS011;10737;45.436;4.390;2023-02-26T19:18:07;4.80;;;4.40;;
21158;SDS011;10737;45.436;4.390;2023-02-26T19:23:10;4.82;;;3.90;;
21158;SDS011;10737;45.436;4.390;2023-02-26T19:28:14;12.35;;;4.30;;
21158;SDS011;10737;45.436;4.390;2023-02-26T19:33:17;4.18;;;3.88;;
21158;SDS011;10737;45.436;4.390;2023-02-26T19:38:21;4.10;;;3.75;;
21158;SDS011;10737;45.436;4.390;2023-02-26T19:43:26;4.68;;;4.15;;
21158;SDS011;10737;45.436;4.390;2023-02-26T19:48:29;5.40;;;4.90;;
21158;SDS011;10737;45.436;4.390;2023-02-26T19:53:33;5.20;;;4.53;;
21158;SDS011;10737;45.436;4.390;2023-02-26T19:58:38;5.85;;;4.57;;
21158;SDS011;10737;45.436;4.390;2023-02-26T20:03:41;4.45;;;4.15;;
21158;SDS011;10737;45.436;4.390;2023-02-26T20:08:44;5.28;;;4.43;;
21158;SDS011;10737;45.436;4.390;2023-02-26T20:13:49;5.00;;;4.50;;
21158;SDS011;10737;45.436;4.390;2023-02-26T20:18:52;5.13;;;4.72;;
21158;SDS011;10737;45.436;4.390;2023-02-26T20:23:56;5.28;;;4.82;;
21158;SDS011;10737;45.436;4.390;2023-02-26T20:29:00;5.35;;;4.85;;
21158;SDS011;10737;45.436;4.390;2023-02-26T20:34:04;8.70;;;5.68;;
21158;SDS011;10737;45.436;4.390;2023-02-26T20:39:07;4.93;;;4.43;;
21158;SDS011;10737;45.436;4.390;2023-02-26T20:44:12;5.97;;;4.78;;
21158;SDS011;10737;45.436;4.390;2023-02-26T20:49:16;6.00;;;4.18;;
21158;SDS011;10737;45.436;4.390;2023-02-26T20:54:19;4.85;;;4.45;;
21158;SDS011;10737;45.436;4.390;2023-02-26T20:59:25;7.93;;;4.35;;
21158;SDS011;10737;45.436;4.390;2023-02-26T21:04:29;5.28;;;4.88;;
21158;SDS011;10737;45.436;4.390;2023-02-26T21:09:33;5.05;;;4.50;;
21158;SDS011;10737;45.436;4.390;2023-02-26T21:14:39;4.53;;;4.18;;
21158;SDS011;10737;45.436;4.390;2023-02-26T21:19:42;4.80;;;4.40;;
21158;SDS011;10737;45.436;4.390;2023-02-26T21:24:46;4.60;;;4.30;;
21158;SDS011;10737;45.436;4.390;2023-02-26T21:29:50;5.30;;;4.90;;
21158;SDS011;10737;45.436;4.390;2023-02-26T21:34:54;4.68;;;4.28;;
21158;SDS011;10737;45.436;4.390;2023-02-26T21:39:59;4.60;;;4.22;;
21158;SDS011;10737;45.436;4.390;2023-02-26T21:45:05;5.07;;;4.78;;
21158;SDS011;10737;45.436;4.390;2023-02-26T21:50:08;4.78;;;4.38;;
21158;SDS011;10737;45.436;4.390;2023-02-26T21:55:12;5.07;;;4.65;;
21158;SDS011;10737;45.436;4.390;2023-02-26T22:00:17;4.32;;;4.03;;
21158;SDS011;10737;45.436;4.390;2023-02-26T22:05:20;5.05;;;4.55;;
21158;SDS011;10737;45.436;4.390;2023-02-26T22:10:24;4.80;;;4.40;;
21158;SDS011;10737;45.436;4.390;2023-02-26T22:15:28;4.53;;;4.32;;
21158;SDS011;10737;45.436;4.390;2023-02-26T22:20:31;5.65;;;4.03;;
21158;SDS011;10737;45.436;4.390;2023-02-26T22:25:34;4.07;;;3.78;;
21158;SDS011;10737;45.436;4.390;2023-02-26T22:30:39;4.18;;;3.88;;
21158;SDS011;10737;45.436;4.390;2023-02-26T22:35:42;4.25;;;3.95;;
21158;SDS011;10737;45.436;4.390;2023-02-26T22:40:47;6.50;;;4.00;;
21158;SDS011;10737;45.436;4.390;2023-02-26T22:45:51;4.97;;;3.97;;
21158;SDS011;10737;45.436;4.390;2023-02-26T22:50:54;4.43;;;4.00;;
21158;SDS011;10737;45.436;4.390;2023-02-26T22:55:58;4.30;;;4.00;;
21158;SDS011;10737;45.436;4.390;2023-02-26T23:01:04;4.10;;;3.80;;
21158;SDS011;10737;45.436;4.390;2023-02-26T23:06:08;4.40;;;4.05;;
21158;SDS011;10737;45.436;4.390;2023-02-26T23:11:11;3.80;;;3.50;;
21158;SDS011;10737;45.436;4.390;2023-02-26T23:16:15;4.30;;;4.00;;
21158;SDS011;10737;45.436;4.390;2023-02-26T23:21:18;3.60;;;3.30;;
21158;SDS011;10737;45.436;4.390;2023-02-26T23:26:22;4.20;;;3.90;;
21158;SDS011;10737;45.436;4.390;2023-02-26T23:31:26;4.82;;;3.95;;
21158;SDS011;10737;45.436;4.390;2023-02-26T23:36:30;4.35;;;3.45;;
21158;SDS011;10737;45.436;4.390;2023-02-26T23:41:33;4.13;;;3.83;;
21158;SDS011;10737;45.436;4.390;2023-02-26T23:46:38;3.97;;;3.55;;
21158;SDS011;10737;45.436;4.390;2023-02-26T23:51:41;4.65;;;4.35;;
21158;SDS011;10737;45.436;4.390;2023-02-26T23:56:44;4.18;;;3.88;;
